Hakasskaja, Russia
Current Conditions -  °F | °C
As of 11:30 PM on Sunday 25 Jan 2015 (Local Time) from UNAA Reporting Station
Smoke Smoke  
Wind Chill: -18°   Ceiling: 20000
Heat Index: -18°   Visibility: 3mi
Dew Point: -24°   Wind: 2mph
Humidity: 76%   Direction: NA
Pressure: 30.95"   Gusts: NA
Location:  53.77°N, 91.32°E
Report Text: UNAA 251630Z VRB01MPS 4800 FU FEW006 BKN200 M28/M31 Q1048 NOSIGRMK QFE762 52190055
Loading
Personal Weather Stations






























Interactive Weather Map New forecast layout! Learn more

10-Day Weather Forecast

Advertisements
Track Severe Weather on mobile